Time;durP1;ratioP1;P1;durP2;ratioP2;P2;SDS_P1;SDS_P2;PMS_P1;PMS_P2;Temp;Humidity;BMP_temperature;BMP_pressure;BME280_temperature;BME280_humidity;BME280_pressure;Samples;Min_cycle;Max_cycle;Signal;HPM_P1;HPM_P2
2022/11/20 00:01:04;;;;;;;;;6.00;5.33;;;;;-146.44;100.00;58906.56;5013142;28;46029;-63
2022/11/20 00:03:29;;;;;;;;;4.33;4.33;;;;;-146.44;100.00;58906.56;5011787;28;45417;-63
2022/11/20 00:06:00;;;;;;;;;6.00;6.00;;;;;-146.44;100.00;58906.56;5009936;28;55786;-63
2022/11/20 00:08:25;;;;;;;;;5.67;5.67;;;;;-146.44;100.00;58906.56;5015848;28;45527;-66
2022/11/20 00:10:50;;;;;;;;;4.00;3.67;;;;;-146.44;100.00;58906.56;5012205;28;45528;-65
2022/11/20 00:13:16;;;;;;;;;4.67;4.67;;;;;-146.44;100.00;58906.56;5012501;28;45700;-66
2022/11/20 00:15:41;;;;;;;;;7.00;7.00;;;;;-146.44;100.00;58906.56;5011547;28;45429;-64
2022/11/20 00:18:06;;;;;;;;;5.67;5.67;;;;;-146.44;100.00;58906.56;5014699;28;45458;-67
2022/11/20 00:20:32;;;;;;;;;6.33;6.00;;;;;-146.44;100.00;58906.56;5014679;28;45426;-68
2022/11/20 00:22:57;;;;;;;;;4.67;4.67;;;;;-146.44;100.00;58906.56;5013361;28;45537;-64
2022/11/20 00:25:22;;;;;;;;;6.00;4.67;;;;;-146.44;100.00;58906.56;5015840;28;45466;-66
2022/11/20 00:27:48;;;;;;;;;2.00;2.00;;;;;-146.44;100.00;58906.56;5013386;28;45463;-64
2022/11/20 00:30:13;;;;;;;;;5.33;4.33;;;;;-146.44;100.00;58906.56;5010246;28;45501;-63
2022/11/20 00:32:38;;;;;;;;;3.00;3.00;;;;;-146.44;100.00;58906.56;5006418;28;45842;-62
2022/11/20 00:35:04;;;;;;;;;15.33;14.67;;;;;-146.44;100.00;58906.56;5007802;28;48505;-62
2022/11/20 00:37:29;;;;;;;;;51.75;43.00;;;;;-146.44;100.00;58906.56;5016348;28;45438;-62
2022/11/20 00:39:55;;;;;;;;;5.00;4.00;;;;;-146.44;100.00;58906.56;5016228;28;45661;-63
2022/11/20 00:42:20;;;;;;;;;4.00;4.00;;;;;-146.44;100.00;58906.56;5011798;28;46078;-62
2022/11/20 00:44:45;;;;;;;;;4.00;3.00;;;;;-146.44;100.00;58906.56;5015384;28;45462;-63
2022/11/20 00:47:10;;;;;;;;;6.00;5.00;;;;;-146.44;100.00;58906.56;5014757;28;50580;-65
2022/11/20 00:49:36;;;;;;;;;4.00;4.00;;;;;-146.44;100.00;58906.56;5021097;28;45593;-63
2022/11/20 00:52:01;;;;;;;;;3.00;3.00;;;;;-146.44;100.00;58906.56;5016600;28;47450;-63
2022/11/20 00:54:26;;;;;;;;;4.00;4.00;;;;;-146.44;100.00;58906.56;5009736;28;45509;-63
2022/11/20 00:56:53;;;;;;;;;5.67;5.67;;;;;-146.44;100.00;58906.56;5010425;28;49799;-62
2022/11/20 00:59:18;;;;;;;;;3.00;3.00;;;;;-146.44;100.00;58906.56;5011986;28;45375;-63
2022/11/20 01:01:44;;;;;;;;;3.33;3.33;;;;;-146.44;100.00;58906.56;5010704;28;45414;-65
2022/11/20 01:04:09;;;;;;;;;5.00;4.33;;;;;-146.44;100.00;58906.56;5012108;28;50953;-65
2022/11/20 01:06:38;;;;;;;;;2.33;2.33;;;;;-146.44;100.00;58906.56;5010417;28;46835;-65
2022/11/20 01:09:10;;;;;;;;;3.67;3.67;;;;;-146.44;100.00;58906.56;5009745;28;45482;-63
2022/11/20 01:11:38;;;;;;;;;3.00;3.00;;;;;-146.44;100.00;58906.56;5011238;28;45623;-64
2022/11/20 01:14:07;;;;;;;;;4.00;4.00;;;;;-146.44;100.00;58906.56;5011208;28;45513;-64
2022/11/20 01:16:38;;;;;;;;;3.00;2.33;;;;;-146.44;100.00;58906.56;5011471;28;45561;-63
2022/11/20 01:19:06;;;;;;;;;3.00;3.00;;;;;-146.44;100.00;58906.56;5017287;28;45548;-64
2022/11/20 01:21:37;;;;;;;;;4.33;3.00;;;;;-146.44;100.00;58906.56;5017805;28;46220;-63
2022/11/20 01:24:04;;;;;;;;;4.00;3.00;;;;;-146.44;100.00;58906.56;5015368;28;45658;-63
2022/11/20 01:26:32;;;;;;;;;3.00;3.00;;;;;-146.44;100.00;58906.56;5014934;28;45453;-63
2022/11/20 01:28:59;;;;;;;;;3.33;3.00;;;;;-146.44;100.00;58906.56;5016827;28;45660;-63
2022/11/20 01:31:30;;;;;;;;;4.67;3.00;;;;;-146.44;100.00;58906.56;5013126;28;47278;-63
2022/11/20 01:33:58;;;;;;;;;3.00;3.00;;;;;-146.44;100.00;58906.56;5014077;28;45457;-65
2022/11/20 01:36:26;;;;;;;;;4.00;3.00;;;;;-146.44;100.00;58906.56;5015660;28;45453;-63
2022/11/20 01:38:53;;;;;;;;;3.00;3.00;;;;;-146.44;100.00;58906.56;5013121;28;45648;-62
2022/11/20 01:44:03;;;;;;;;;3.00;2.00;;;;;-146.44;100.00;58906.56;5012314;28;45536;-64
2022/11/20 01:46:30;;;;;;;;;3.00;3.00;;;;;-146.44;100.00;58906.56;5017180;28;45478;-63
2022/11/20 01:49:10;;;;;;;;;2.33;2.33;;;;;-146.44;100.00;58906.56;5014949;28;45602;-62
2022/11/20 01:51:48;;;;;;;;;2.67;2.33;;;;;-146.44;100.00;58906.56;5007345;28;46786;-64
2022/11/20 01:54:19;;;;;;;;;4.00;3.00;;;;;-146.44;100.00;58906.56;5010921;28;45728;-64
2022/11/20 01:56:48;;;;;;;;;4.00;4.00;;;;;-146.44;100.00;58906.56;5013266;28;45501;-64
2022/11/20 01:59:17;;;;;;;;;1.00;1.00;;;;;-146.44;100.00;58906.56;5009346;28;45509;-63
2022/11/20 02:01:43;;;;;;;;;3.00;3.00;;;;;-146.44;100.00;58906.56;5005839;28;45678;-62
2022/11/20 02:04:09;;;;;;;;;7.67;7.67;;;;;-146.44;100.00;58906.56;5006621;28;45616;-63
2022/11/20 02:06:45;;;;;;;;;2.33;2.33;;;;;-146.44;100.00;58906.56;5015170;28;45528;-63
2022/11/20 02:09:11;;;;;;;;;2.67;2.67;;;;;-146.44;100.00;58906.56;5015628;28;45534;-64
2022/11/20 02:11:37;;;;;;;;;2.00;2.00;;;;;-146.44;100.00;58906.56;5014354;28;45607;-64
2022/11/20 02:14:02;;;;;;;;;3.00;2.33;;;;;-146.44;100.00;58906.56;5012544;28;45545;-63
2022/11/20 02:16:35;;;;;;;;;2.67;2.67;;;;;-146.44;100.00;58906.56;5012951;28;45568;-62
2022/11/20 02:19:04;;;;;;;;;4.00;2.00;;;;;-146.44;100.00;58906.56;5016265;28;45381;-64
2022/11/20 02:21:44;;;;;;;;;4.00;3.00;;;;;-146.44;100.00;58906.56;5013275;28;45549;-64
2022/11/20 02:24:18;;;;;;;;;3.00;2.00;;;;;-146.44;100.00;58906.56;5015325;28;45386;-65
2022/11/20 02:27:11;;;;;;;;;2.00;2.00;;;;;-146.44;100.00;58906.56;5016042;28;45422;-65
2022/11/20 02:30:01;;;;;;;;;3.67;2.00;;;;;-146.44;100.00;58906.56;5016335;28;45633;-64
2022/11/20 02:32:32;;;;;;;;;2.33;2.33;;;;;-146.44;100.00;58906.56;5003554;28;46110;-63
2022/11/20 02:34:58;;;;;;;;;2.67;1.67;;;;;-146.44;100.00;58906.56;5017116;28;45442;-64
2022/11/20 02:37:32;;;;;;;;;4.00;2.33;;;;;-146.44;100.00;58906.56;5016750;28;45501;-65
2022/11/20 02:39:57;;;;;;;;;4.00;2.33;;;;;-146.44;100.00;58906.56;5017221;28;45406;-65
2022/11/20 02:42:22;;;;;;;;;2.00;2.00;;;;;-146.44;100.00;58906.56;5016629;28;45372;-64
2022/11/20 02:44:48;;;;;;;;;3.00;3.00;;;;;-146.44;100.00;58906.56;5009467;28;50132;-64
2022/11/20 02:47:13;;;;;;;;;2.00;2.00;;;;;-146.44;100.00;58906.56;5016936;28;45468;-65
2022/11/20 02:49:38;;;;;;;;;2.00;2.00;;;;;-146.44;100.00;58906.56;5016847;28;45457;-65
2022/11/20 02:52:04;;;;;;;;;3.33;3.00;;;;;-146.44;100.00;58906.56;5016208;28;55876;-64
2022/11/20 02:54:29;;;;;;;;;1.00;1.00;;;;;-146.44;100.00;58906.56;5016396;28;51234;-64
2022/11/20 02:56:54;;;;;;;;;1.33;1.00;;;;;-146.44;100.00;58906.56;5017002;28;45620;-65
2022/11/20 02:59:20;;;;;;;;;2.00;2.00;;;;;-146.44;100.00;58906.56;5016705;28;46565;-64
2022/11/20 03:01:45;;;;;;;;;3.67;2.67;;;;;-146.44;100.00;58906.56;5016518;28;45526;-64
2022/11/20 03:04:10;;;;;;;;;2.67;2.00;;;;;-146.44;100.00;58906.56;5016652;28;45694;-65
2022/11/20 03:06:36;;;;;;;;;1.00;1.00;;;;;-146.44;100.00;58906.56;5016595;28;45544;-65
2022/11/20 03:09:01;;;;;;;;;2.00;2.00;;;;;-146.44;100.00;58906.56;5016829;28;45431;-64
2022/11/20 03:11:28;;;;;;;;;2.33;2.00;;;;;-146.44;100.00;58906.56;5016438;28;45625;-66
2022/11/20 03:13:53;;;;;;;;;3.00;2.00;;;;;-146.44;100.00;58906.56;5016395;28;45482;-65
2022/11/20 03:16:20;;;;;;;;;1.00;1.00;;;;;-146.44;100.00;58906.56;5016188;28;45418;-64
2022/11/20 03:18:46;;;;;;;;;2.00;1.00;;;;;-146.44;100.00;58906.56;5016514;28;45638;-65
2022/11/20 03:21:13;;;;;;;;;2.00;2.00;;;;;-146.44;100.00;58906.56;5014819;28;46216;-63
2022/11/20 03:23:40;;;;;;;;;1.00;1.00;;;;;-146.44;100.00;58906.56;5016039;28;45409;-65
2022/11/20 03:26:18;;;;;;;;;3.00;2.00;;;;;-146.44;100.00;58906.56;5015682;28;45467;-65
2022/11/20 03:29:04;;;;;;;;;1.33;1.33;;;;;-146.44;100.00;58906.56;5016190;28;45514;-65
2022/11/20 03:31:35;;;;;;;;;1.00;1.00;;;;;-146.44;100.00;58906.56;5016188;28;46037;-64
2022/11/20 03:34:01;;;;;;;;;2.00;1.00;;;;;-146.44;100.00;58906.56;5015226;28;45499;-65
2022/11/20 03:36:27;;;;;;;;;0.33;0.33;;;;;-146.44;100.00;58906.56;5016315;28;45425;-65
2022/11/20 03:38:54;;;;;;;;;2.00;2.00;;;;;-146.44;100.00;58906.56;5016048;28;45538;-65
2022/11/20 03:41:22;;;;;;;;;1.33;1.33;;;;;-146.44;100.00;58906.56;5015871;28;45386;-66
2022/11/20 03:43:58;;;;;;;;;2.00;2.00;;;;;-146.44;100.00;58906.56;5015673;28;45506;-65
2022/11/20 03:46:24;;;;;;;;;1.33;1.00;;;;;-146.44;100.00;58906.56;5016216;28;45454;-64
2022/11/20 03:48:50;;;;;;;;;2.00;2.00;;;;;-146.44;100.00;58906.56;5015876;28;45648;-64
2022/11/20 03:51:18;;;;;;;;;4.00;2.00;;;;;-146.44;100.00;58906.56;5015822;28;46270;-64
2022/11/20 03:53:46;;;;;;;;;2.67;1.00;;;;;-146.44;100.00;58906.56;5015484;28;45408;-65
2022/11/20 03:56:13;;;;;;;;;2.33;2.33;;;;;-146.44;100.00;58906.56;5030998;28;45349;-65
2022/11/20 03:58:39;;;;;;;;;1.33;1.33;;;;;-146.44;100.00;58906.56;5015669;28;45390;-65
2022/11/20 04:01:10;;;;;;;;;1.33;1.33;;;;;-146.44;100.00;58906.56;5015453;28;45624;-65
2022/11/20 04:03:37;;;;;;;;;2.00;2.00;;;;;-146.44;100.00;58906.56;5015575;28;45438;-65
2022/11/20 04:06:11;;;;;;;;;2.33;2.33;;;;;-146.44;100.00;58906.56;5015707;28;45418;-65
2022/11/20 04:08:36;;;;;;;;;3.00;2.00;;;;;-146.44;100.00;58906.56;5030842;28;45477;-63
2022/11/20 04:11:23;;;;;;;;;3.00;2.67;;;;;-146.44;100.00;58906.56;5015229;28;46017;-66
2022/11/20 04:13:53;;;;;;;;;2.33;2.00;;;;;-146.44;100.00;58906.56;5015659;28;45554;-65
2022/11/20 04:16:19;;;;;;;;;4.00;2.33;;;;;-146.44;100.00;58906.56;5015414;28;45497;-64
2022/11/20 04:18:45;;;;;;;;;1.00;1.00;;;;;-146.44;100.00;58906.56;5015513;28;45393;-64
2022/11/20 04:21:11;;;;;;;;;2.33;2.33;;;;;-146.44;100.00;58906.56;5014870;28;45778;-64
2022/11/20 04:23:37;;;;;;;;;2.00;1.00;;;;;-146.44;100.00;58906.56;5015239;28;45367;-65
2022/11/20 04:26:11;;;;;;;;;2.00;1.00;;;;;-146.44;100.00;58906.56;5016051;28;45560;-66
2022/11/20 04:28:37;;;;;;;;;3.00;1.00;;;;;-146.44;100.00;58906.56;5015623;28;45354;-64
2022/11/20 04:31:07;;;;;;;;;2.00;2.00;;;;;-146.44;100.00;58906.56;5015115;28;45424;-65
2022/11/20 04:33:34;;;;;;;;;2.00;2.00;;;;;-146.44;100.00;58906.56;5015122;28;45513;-65
2022/11/20 04:36:17;;;;;;;;;1.00;1.00;;;;;-146.44;100.00;58906.56;5015157;28;45517;-66
2022/11/20 04:38:43;;;;;;;;;1.67;1.67;;;;;-146.44;100.00;58906.56;5015345;28;45516;-65
2022/11/20 04:41:14;;;;;;;;;1.67;1.67;;;;;-146.44;100.00;58906.56;5014930;28;45567;-65
2022/11/20 04:43:40;;;;;;;;;5.00;2.00;;;;;-146.44;100.00;58906.56;5014190;28;45509;-65
2022/11/20 04:46:05;;;;;;;;;1.00;1.00;;;;;-146.44;100.00;58906.56;5012615;28;45640;-64
2022/11/20 04:48:30;;;;;;;;;2.00;2.00;;;;;-146.44;100.00;58906.56;5014648;28;48250;-64
2022/11/20 04:50:56;;;;;;;;;2.67;1.00;;;;;-146.44;100.00;58906.56;5014507;28;45969;-65
2022/11/20 04:53:22;;;;;;;;;0.00;0.00;;;;;-146.44;100.00;58906.56;5014912;28;45462;-64
2022/11/20 04:55:48;;;;;;;;;2.00;2.00;;;;;-146.44;100.00;58906.56;5014685;28;45462;-64
2022/11/20 04:58:14;;;;;;;;;2.33;2.00;;;;;-146.44;100.00;58906.56;5014861;28;45565;-66
2022/11/20 05:00:39;;;;;;;;;1.33;1.33;;;;;-146.44;100.00;58906.56;5014565;28;46210;-64
2022/11/20 05:03:05;;;;;;;;;2.00;2.00;;;;;-146.44;100.00;58906.56;5014852;28;45464;-65
2022/11/20 05:05:30;;;;;;;;;4.33;3.00;;;;;-146.44;100.00;58906.56;5015044;28;45418;-64
2022/11/20 05:07:59;;;;;;;;;2.33;2.33;;;;;-146.44;100.00;58906.56;5014621;28;45405;-65
2022/11/20 05:10:25;;;;;;;;;4.00;3.00;;;;;-146.44;100.00;58906.56;5014778;28;45919;-65
2022/11/20 05:12:51;;;;;;;;;2.67;2.67;;;;;-146.44;100.00;58906.56;5013824;28;45458;-64
2022/11/20 05:15:16;;;;;;;;;2.33;2.33;;;;;-146.44;100.00;58906.56;5014726;28;45819;-66
2022/11/20 05:17:47;;;;;;;;;2.33;2.33;;;;;-146.44;100.00;58906.56;5014559;28;45330;-65
2022/11/20 05:20:12;;;;;;;;;4.00;4.00;;;;;-146.44;100.00;58906.56;5014783;28;45408;-64
2022/11/20 05:22:38;;;;;;;;;3.00;3.00;;;;;-146.44;100.00;58906.56;5014609;28;45470;-65
2022/11/20 05:25:03;;;;;;;;;5.00;5.00;;;;;-146.44;100.00;58906.56;5014291;28;45362;-64
2022/11/20 05:27:29;;;;;;;;;4.33;3.67;;;;;-146.44;100.00;58906.56;5014428;28;45444;-65
2022/11/20 05:29:54;;;;;;;;;3.00;3.00;;;;;-146.44;100.00;58906.56;5014446;28;49141;-65
2022/11/20 05:32:19;;;;;;;;;3.67;3.67;;;;;-146.44;100.00;58906.56;5013991;28;57368;-64
2022/11/20 05:34:44;;;;;;;;;3.00;3.00;;;;;-146.44;100.00;58906.56;5014398;28;45307;-65
2022/11/20 05:37:10;;;;;;;;;3.67;3.67;;;;;-146.44;100.00;58906.56;5014121;28;50232;-64
2022/11/20 05:39:35;;;;;;;;;3.67;3.67;;;;;-146.44;100.00;58906.56;5029120;28;47847;-64
2022/11/20 05:44:44;;;;;;;;;5.33;4.33;;;;;-146.44;100.00;58906.56;5014462;28;45434;-63
2022/11/20 05:47:09;;;;;;;;;5.00;4.00;;;;;-146.44;100.00;58906.56;5013798;28;47547;-65
2022/11/20 05:49:35;;;;;;;;;3.67;3.67;;;;;-146.44;100.00;58906.56;5013835;28;57927;-65
2022/11/20 05:52:00;;;;;;;;;4.33;4.33;;;;;-146.44;100.00;58906.56;5014043;28;45458;-64
2022/11/20 05:54:25;;;;;;;;;5.00;5.00;;;;;-146.44;100.00;58906.56;5014110;28;45516;-63
2022/11/20 05:56:51;;;;;;;;;4.00;4.00;;;;;-146.44;100.00;58906.56;5013888;28;48270;-65
2022/11/20 05:59:16;;;;;;;;;5.00;4.00;;;;;-146.44;100.00;58906.56;5017182;28;55479;-65
2022/11/20 06:01:42;;;;;;;;;4.33;4.33;;;;;-146.44;100.00;58906.56;5017183;28;52909;-64
2022/11/20 06:04:07;;;;;;;;;6.67;6.00;;;;;-146.44;100.00;58906.56;5017474;28;45485;-63
2022/11/20 06:06:32;;;;;;;;;5.00;5.00;;;;;-146.44;100.00;58906.56;5017537;28;45564;-65
2022/11/20 06:08:58;;;;;;;;;6.67;5.67;;;;;-146.44;100.00;58906.56;5017433;28;45967;-64
2022/11/20 06:11:24;;;;;;;;;6.00;6.00;;;;;-146.44;100.00;58906.56;5017201;28;45658;-65
2022/11/20 06:13:50;;;;;;;;;5.33;5.33;;;;;-146.44;100.00;58906.56;5017369;28;45442;-63
2022/11/20 06:16:17;;;;;;;;;6.00;6.00;;;;;-146.44;100.00;58906.56;5017008;28;45401;-64
2022/11/20 06:18:42;;;;;;;;;8.00;7.00;;;;;-146.44;100.00;58906.56;5017337;28;45452;-64
2022/11/20 06:21:11;;;;;;;;;7.00;6.00;;;;;-146.44;100.00;58906.56;5016783;28;45969;-65
2022/11/20 06:23:37;;;;;;;;;9.67;8.33;;;;;-146.44;100.00;58906.56;5017331;28;45445;-65
2022/11/20 06:26:08;;;;;;;;;6.67;6.67;;;;;-146.44;100.00;58906.56;5017824;28;45486;-64
2022/11/20 06:28:33;;;;;;;;;6.33;5.67;;;;;-146.44;100.00;58906.56;5017124;28;46116;-64
2022/11/20 06:30:59;;;;;;;;;6.00;6.00;;;;;-146.44;100.00;58906.56;5015718;28;45567;-63
2022/11/20 06:33:25;;;;;;;;;9.33;9.33;;;;;-146.44;100.00;58906.56;5017050;28;45479;-64
2022/11/20 06:35:51;;;;;;;;;8.00;7.00;;;;;-146.44;100.00;58906.56;5016949;28;45592;-66
2022/11/20 06:38:17;;;;;;;;;10.00;10.00;;;;;-146.44;100.00;58906.56;5016704;28;46120;-66
2022/11/20 06:40:43;;;;;;;;;11.00;9.00;;;;;-146.44;100.00;58906.56;5016835;28;45422;-64
2022/11/20 06:43:09;;;;;;;;;10.67;9.33;;;;;-146.44;100.00;58906.56;5016999;28;45436;-65
2022/11/20 06:45:35;;;;;;;;;9.00;9.00;;;;;-146.44;100.00;58906.56;5016621;28;45432;-64
2022/11/20 06:48:01;;;;;;;;;6.67;6.67;;;;;-146.44;100.00;58906.56;5016537;28;45391;-65
2022/11/20 06:50:26;;;;;;;;;9.67;7.00;;;;;-146.44;100.00;58906.56;5016386;28;45367;-65
2022/11/20 06:52:51;;;;;;;;;12.00;10.00;;;;;-146.44;100.00;58906.56;5016922;28;45296;-64
2022/11/20 06:55:17;;;;;;;;;8.33;8.33;;;;;-146.44;100.00;58906.56;5016671;28;45316;-64
2022/11/20 06:57:42;;;;;;;;;9.00;7.00;;;;;-146.44;100.00;58906.56;5016171;28;49610;-64
2022/11/20 07:00:08;;;;;;;;;12.00;9.67;;;;;-146.44;100.00;58906.56;5016512;28;45539;-65
2022/11/20 07:02:33;;;;;;;;;11.00;8.33;;;;;-146.44;100.00;58906.56;5016713;28;45566;-63
2022/11/20 07:04:58;;;;;;;;;11.00;10.33;;;;;-146.44;100.00;58906.56;5016802;28;45597;-64
2022/11/20 07:07:24;;;;;;;;;11.00;10.00;;;;;-146.44;100.00;58906.56;5016193;28;47636;-65
2022/11/20 07:09:49;;;;;;;;;8.33;7.67;;;;;-146.44;100.00;58906.56;5015085;28;45451;-65
2022/11/20 07:12:14;;;;;;;;;10.00;10.00;;;;;-146.44;100.00;58906.56;5016856;28;45398;-65
2022/11/20 07:14:40;;;;;;;;;12.00;10.00;;;;;-146.44;100.00;58906.56;5016221;28;45600;-64
2022/11/20 07:17:05;;;;;;;;;10.33;10.33;;;;;-146.44;100.00;58906.56;5015917;28;57526;-65
2022/11/20 07:19:30;;;;;;;;;10.33;10.33;;;;;-146.44;100.00;58906.56;5016089;28;45445;-63
2022/11/20 07:21:55;;;;;;;;;7.00;7.00;;;;;-146.44;100.00;58906.56;5016277;28;45424;-65
2022/11/20 07:24:21;;;;;;;;;10.00;10.00;;;;;-146.44;100.00;58906.56;5016159;28;45502;-63
2022/11/20 07:26:48;;;;;;;;;9.67;9.67;;;;;-146.44;100.00;58906.56;5016633;28;46263;-63
2022/11/20 07:29:14;;;;;;;;;8.33;8.33;;;;;-146.44;100.00;58906.56;5016342;28;45495;-65
2022/11/20 07:31:39;;;;;;;;;9.33;9.33;;;;;-146.44;100.00;58906.56;5015945;28;45445;-65
2022/11/20 07:34:05;;;;;;;;;9.67;9.00;;;;;-146.44;100.00;58906.56;5015887;28;47420;-64
2022/11/20 07:36:30;;;;;;;;;9.00;9.00;;;;;-146.44;100.00;58906.56;5015904;28;46246;-64
2022/11/20 07:38:55;;;;;;;;;7.00;7.00;;;;;-146.44;100.00;58906.56;5016210;28;45452;-65
2022/11/20 07:41:20;;;;;;;;;6.67;6.00;;;;;-146.44;100.00;58906.56;5016082;28;45382;-65
2022/11/20 07:43:46;;;;;;;;;8.00;8.00;;;;;-146.44;100.00;58906.56;5015338;28;54371;-65
2022/11/20 07:46:11;;;;;;;;;6.00;6.00;;;;;-146.44;100.00;58906.56;5015697;28;45544;-64
2022/11/20 07:48:36;;;;;;;;;7.00;6.00;;;;;-146.44;100.00;58906.56;5015807;28;45420;-64
2022/11/20 07:51:02;;;;;;;;;5.33;5.00;;;;;-146.44;100.00;58906.56;5015875;28;45406;-65
2022/11/20 07:53:27;;;;;;;;;7.00;7.00;;;;;-146.44;100.00;58906.56;5015433;28;49061;-63
2022/11/20 07:55:52;;;;;;;;;6.67;6.00;;;;;-146.44;100.00;58906.56;5015481;28;46946;-64
2022/11/20 07:58:19;;;;;;;;;2.00;2.00;;;;;-146.44;100.00;58906.56;5015652;28;45474;-66
2022/11/20 08:00:45;;;;;;;;;6.67;6.67;;;;;-146.44;100.00;58906.56;5015905;28;45446;-65
2022/11/20 08:03:10;;;;;;;;;6.33;6.33;;;;;-146.44;100.00;58906.56;5015600;28;45416;-64
2022/11/20 08:05:37;;;;;;;;;7.00;5.00;;;;;-146.44;100.00;58906.56;5015399;28;46137;-65
2022/11/20 08:08:02;;;;;;;;;5.67;5.67;;;;;-146.44;100.00;58906.56;5015581;28;45441;-64
2022/11/20 08:10:28;;;;;;;;;6.33;6.33;;;;;-146.44;100.00;58906.56;5015695;28;45465;-64
2022/11/20 08:15:39;;;;;;;;;5.00;5.00;;;;;-146.44;100.00;58906.56;5015326;28;45419;-64
2022/11/20 08:18:07;;;;;;;;;6.00;6.00;;;;;-146.44;100.00;58906.56;5015402;28;45414;-65
2022/11/20 08:20:34;;;;;;;;;9.67;8.33;;;;;-146.44;100.00;58906.56;5015332;28;45395;-65
2022/11/20 08:23:01;;;;;;;;;8.33;7.00;;;;;-146.44;100.00;58906.56;5015041;28;45604;-65
2022/11/20 08:25:30;;;;;;;;;6.33;6.33;;;;;-146.44;100.00;58906.56;5015329;28;45558;-64
2022/11/20 08:28:00;;;;;;;;;9.00;7.67;;;;;-146.44;100.00;58906.56;5015764;28;45505;-65
2022/11/20 08:30:26;;;;;;;;;10.33;9.00;;;;;-146.44;100.00;58906.56;5015226;28;45469;-65
2022/11/20 08:32:51;;;;;;;;;7.00;7.00;;;;;-146.44;100.00;58906.56;5015238;28;45621;-65
2022/11/20 08:35:16;;;;;;;;;11.00;8.33;;;;;-146.44;100.00;58906.56;5014845;28;46103;-64
2022/11/20 08:37:42;;;;;;;;;11.33;9.00;;;;;-146.44;100.00;58906.56;5015334;28;45374;-63
2022/11/20 08:40:10;;;;;;;;;8.33;8.33;;;;;-146.44;100.00;58906.56;5014768;28;48495;-65
2022/11/20 08:42:35;;;;;;;;;8.67;8.33;;;;;-146.44;100.00;58906.56;5015131;28;45451;-66
2022/11/20 08:45:00;;;;;;;;;10.67;9.33;;;;;-146.44;100.00;58906.56;5014666;28;49397;-67
2022/11/20 08:47:26;;;;;;;;;10.67;10.67;;;;;-146.44;100.00;58906.56;5014792;28;45445;-65
2022/11/20 08:49:51;;;;;;;;;11.00;7.00;;;;;-146.44;100.00;58906.56;5014846;28;45381;-66
2022/11/20 08:52:16;;;;;;;;;6.67;6.67;;;;;-146.44;100.00;58906.56;5029963;28;45343;-63
2022/11/20 08:54:42;;;;;;;;;8.00;6.00;;;;;-146.44;100.00;58906.56;5014625;28;46148;-65
2022/11/20 08:57:07;;;;;;;;;10.00;10.00;;;;;-146.44;100.00;58906.56;5014861;28;45414;-64
2022/11/20 08:59:33;;;;;;;;;6.67;5.67;;;;;-146.44;100.00;58906.56;5014753;28;45435;-65
2022/11/20 09:01:58;;;;;;;;;10.00;10.00;;;;;-146.44;100.00;58906.56;5014872;28;45503;-65
2022/11/20 09:04:23;;;;;;;;;11.33;10.67;;;;;-146.44;100.00;58906.56;5014567;28;45386;-64
2022/11/20 09:06:50;;;;;;;;;9.00;9.00;;;;;-146.44;100.00;58906.56;5014789;28;45462;-64
2022/11/20 09:09:17;;;;;;;;;11.33;9.00;;;;;-146.44;100.00;58906.56;5014802;28;45540;-66
2022/11/20 09:11:43;;;;;;;;;9.33;9.33;;;;;-146.44;100.00;58906.56;5014758;28;45485;-66
2022/11/20 09:14:08;;;;;;;;;9.00;9.00;;;;;-146.44;100.00;58906.56;5013962;28;58172;-65
2022/11/20 09:16:34;;;;;;;;;10.00;8.67;;;;;-146.44;100.00;58906.56;5014654;28;45454;-64
2022/11/20 09:18:59;;;;;;;;;12.33;11.67;;;;;-146.44;100.00;58906.56;5014925;28;45497;-63
2022/11/20 09:21:24;;;;;;;;;13.33;12.67;;;;;-146.44;100.00;58906.56;5014494;28;45451;-65
2022/11/20 09:23:50;;;;;;;;;12.00;10.33;;;;;-146.44;100.00;58906.56;5014382;28;45434;-65
2022/11/20 09:26:15;;;;;;;;;13.00;10.67;;;;;-146.44;100.00;58906.56;5014277;28;45495;-66
2022/11/20 09:28:41;;;;;;;;;11.67;9.67;;;;;-146.44;100.00;58906.56;5015223;28;45929;-65
2022/11/20 09:31:08;;;;;;;;;10.67;10.67;;;;;-146.44;100.00;58906.56;5014793;28;45552;-64
2022/11/20 09:33:33;;;;;;;;;12.00;12.00;;;;;-146.44;100.00;58906.56;5016830;28;45382;-64
2022/11/20 09:35:59;;;;;;;;;12.00;10.00;;;;;-146.44;100.00;58906.56;5017819;28;45390;-64
2022/11/20 09:38:24;;;;;;;;;13.00;11.33;;;;;-146.44;100.00;58906.56;5017734;28;45320;-65
2022/11/20 09:41:04;;;;;;;;;13.00;13.00;;;;;-146.44;100.00;58906.56;5017408;28;54668;-64
2022/11/20 09:43:48;;;;;;;;;12.00;12.00;;;;;-146.44;100.00;58906.56;5017607;28;46432;-65
2022/11/20 09:46:28;;;;;;;;;14.00;12.67;;;;;-146.44;100.00;58906.56;5017590;28;45437;-64
2022/11/20 09:49:20;;;;;;;;;14.00;12.00;;;;;-146.44;100.00;58906.56;5017512;28;45395;-65
2022/11/20 09:52:17;;;;;;;;;11.00;11.00;;;;;-146.44;100.00;58906.56;5017349;28;45425;-65
2022/11/20 09:54:43;;;;;;;;;15.67;13.00;;;;;-146.44;100.00;58906.56;5005032;28;45479;-64
2022/11/20 09:57:17;;;;;;;;;13.00;12.33;;;;;-146.44;100.00;58906.56;5017264;28;45463;-66
2022/11/20 09:59:46;;;;;;;;;13.25;11.75;;;;;-146.44;100.00;58906.56;5017728;28;45384;-65
2022/11/20 10:02:26;;;;;;;;;12.00;12.00;;;;;-146.44;100.00;58906.56;5017645;28;45458;-66
2022/11/20 10:05:09;;;;;;;;;11.67;11.67;;;;;-146.44;100.00;58906.56;5017313;28;46194;-65
2022/11/20 10:07:47;;;;;;;;;13.00;13.00;;;;;-146.44;100.00;58906.56;5017396;28;45490;-66
2022/11/20 10:10:21;;;;;;;;;10.33;10.33;;;;;-146.44;100.00;58906.56;5017452;28;45485;-67
2022/11/20 10:12:57;;;;;;;;;11.33;11.00;;;;;-146.44;100.00;58906.56;5017326;28;45372;-66
2022/11/20 10:15:42;;;;;;;;;12.33;12.33;;;;;-146.44;100.00;58906.56;5017202;28;45434;-66
2022/11/20 10:18:52;;;;;;;;;9.67;9.67;;;;;-146.44;100.00;58906.56;5017145;28;45496;-65
2022/11/20 10:21:57;;;;;;;;;11.00;10.00;;;;;-146.44;100.00;58906.56;5017207;28;45496;-67
2022/11/20 10:24:44;;;;;;;;;10.00;10.00;;;;;-146.44;100.00;58906.56;5017255;28;45564;-66
2022/11/20 10:27:29;;;;;;;;;10.00;10.00;;;;;-146.44;100.00;58906.56;5017660;28;46022;-65
2022/11/20 10:30:19;;;;;;;;;9.00;9.00;;;;;-146.44;100.00;58906.56;5016941;28;45450;-65
2022/11/20 10:32:50;;;;;;;;;8.67;8.67;;;;;-146.44;100.00;58906.56;5017303;28;45428;-66
2022/11/20 10:35:23;;;;;;;;;9.00;6.67;;;;;-146.44;100.00;58906.56;5016855;28;45465;-64
2022/11/20 10:37:59;;;;;;;;;7.67;7.67;;;;;-146.44;100.00;58906.56;5016789;28;46839;-66
2022/11/20 10:40:45;;;;;;;;;11.33;10.33;;;;;-146.44;100.00;58906.56;5017225;28;45514;-66
2022/11/20 10:43:44;;;;;;;;;8.67;8.67;;;;;-146.44;100.00;58906.56;5017036;28;45445;-67
2022/11/20 10:46:23;;;;;;;;;10.00;10.00;;;;;-146.44;100.00;58906.56;5015404;28;45601;-65
2022/11/20 10:48:49;;;;;;;;;11.00;7.00;;;;;-146.44;100.00;58906.56;5016529;28;46365;-65
2022/11/20 10:51:39;;;;;;;;;5.67;4.67;;;;;-146.44;100.00;58906.56;5015437;28;45516;-66
2022/11/20 10:54:52;;;;;;;;;6.00;6.00;;;;;-146.44;100.00;58906.56;5013365;28;45430;-65
2022/11/20 10:57:21;;;;;;;;;4.67;4.00;;;;;-146.44;100.00;58906.56;5015577;28;45398;-66
2022/11/20 11:00:02;;;;;;;;;7.33;6.33;;;;;-146.44;100.00;58906.56;5016561;28;45448;-63
2022/11/20 11:02:44;;;;;;;;;3.00;3.00;;;;;-146.44;100.00;58906.56;5016684;28;45548;-65
2022/11/20 11:05:40;;;;;;;;;3.67;3.67;;;;;-146.44;100.00;58906.56;5016791;28;45502;-64
2022/11/20 11:08:12;;;;;;;;;0.00;0.00;;;;;-146.44;100.00;58906.56;5016661;28;45519;-62
2022/11/20 11:10:59;;;;;;;;;4.00;4.00;;;;;-146.44;100.00;58906.56;5016332;28;45582;-65
2022/11/20 11:13:27;;;;;;;;;6.00;4.00;;;;;-146.44;100.00;58906.56;5016383;28;45489;-65
2022/11/20 11:15:54;;;;;;;;;4.00;4.00;;;;;-146.44;100.00;58906.56;5016444;28;45528;-65
2022/11/20 11:18:27;;;;;;;;;5.33;4.00;;;;;-146.44;100.00;58906.56;5016691;28;45379;-65
2022/11/20 11:20:54;;;;;;;;;4.00;4.00;;;;;-146.44;100.00;58906.56;5016224;28;46095;-64
2022/11/20 11:23:40;;;;;;;;;4.00;3.33;;;;;-146.44;100.00;58906.56;5016030;28;45538;-64